sensor_id;sensor_type;location;lat;lon;timestamp;temperature;humidity
24664;DHT22;12791;50.992;13.788;2022-10-26T03:01:54;9.30;99.90
24664;DHT22;12791;50.992;13.788;2022-10-26T03:04:27;9.40;99.90
24664;DHT22;12791;50.992;13.788;2022-10-26T03:06:54;9.30;99.90
24664;DHT22;12791;50.992;13.788;2022-10-26T03:09:21;9.30;99.90
24664;DHT22;12791;50.992;13.788;2022-10-26T03:11:48;9.30;99.90
24664;DHT22;12791;50.992;13.788;2022-10-26T03:14:14;9.40;99.90
24664;DHT22;12791;50.992;13.788;2022-10-26T03:16:41;9.40;99.90
24664;DHT22;12791;50.992;13.788;2022-10-26T03:19:09;9.40;99.90
24664;DHT22;12791;50.992;13.788;2022-10-26T03:21:36;9.30;99.90
24664;DHT22;12791;50.992;13.788;2022-10-26T03:24:03;9.40;99.90
24664;DHT22;12791;50.992;13.788;2022-10-26T03:26:29;9.40;99.90
24664;DHT22;12791;50.992;13.788;2022-10-26T03:28:56;9.50;99.90
24664;DHT22;12791;50.992;13.788;2022-10-26T03:31:23;9.30;99.90
24664;DHT22;12791;50.992;13.788;2022-10-26T03:33:49;9.30;99.90
24664;DHT22;12791;50.992;13.788;2022-10-26T03:36:18;9.30;99.90
24664;DHT22;12791;50.992;13.788;2022-10-26T03:38:44;9.20;99.90
24664;DHT22;12791;50.992;13.788;2022-10-26T03:41:11;9.30;99.90
24664;DHT22;12791;50.992;13.788;2022-10-26T03:43:38;9.30;99.90
24664;DHT22;12791;50.992;13.788;2022-10-26T03:46:04;9.40;99.90
24664;DHT22;12791;50.992;13.788;2022-10-26T03:48:31;9.30;99.90
24664;DHT22;12791;50.992;13.788;2022-10-26T03:50:58;9.30;99.90
24664;DHT22;12791;50.992;13.788;2022-10-26T03:53:26;9.20;99.90
24664;DHT22;12791;50.992;13.788;2022-10-26T03:55:53;9.30;99.90
24664;DHT22;12791;50.992;13.788;2022-10-26T03:58:19;9.20;99.90
24664;DHT22;12791;50.992;13.788;2022-10-26T04:00:46;9.10;99.90
24664;DHT22;12791;50.992;13.788;2022-10-26T04:03:13;9.10;99.90
24664;DHT22;12791;50.992;13.788;2022-10-26T04:05:40;9.20;99.90
24664;DHT22;12791;50.992;13.788;2022-10-26T04:08:07;9.10;99.90
24664;DHT22;12791;50.992;13.788;2022-10-26T04:10:35;9.10;99.90
24664;DHT22;12791;50.992;13.788;2022-10-26T04:13:02;9.10;99.90
24664;DHT22;12791;50.992;13.788;2022-10-26T04:15:29;9.10;99.90
24664;DHT22;12791;50.992;13.788;2022-10-26T04:17:56;9.10;99.90
24664;DHT22;12791;50.992;13.788;2022-10-26T04:20:23;8.90;99.90
24664;DHT22;12791;50.992;13.788;2022-10-26T04:22:56;9.20;99.90
24664;DHT22;12791;50.992;13.788;2022-10-26T04:25:23;9.00;99.90
24664;DHT22;12791;50.992;13.788;2022-10-26T04:27:51;9.10;99.90
24664;DHT22;12791;50.992;13.788;2022-10-26T04:30:18;9.00;99.90
24664;DHT22;12791;50.992;13.788;2022-10-26T04:32:45;9.20;99.90
24664;DHT22;12791;50.992;13.788;2022-10-26T04:35:12;9.10;99.90
24664;DHT22;12791;50.992;13.788;2022-10-26T04:37:38;8.90;99.90
24664;DHT22;12791;50.992;13.788;2022-10-26T04:40:06;8.90;99.90
24664;DHT22;12791;50.992;13.788;2022-10-26T04:42:39;8.90;99.90
24664;DHT22;12791;50.992;13.788;2022-10-26T04:45:08;8.90;99.90
24664;DHT22;12791;50.992;13.788;2022-10-26T04:47:36;8.90;99.90
24664;DHT22;12791;50.992;13.788;2022-10-26T04:50:03;8.80;99.90
24664;DHT22;12791;50.992;13.788;2022-10-26T04:52:30;8.80;99.90
24664;DHT22;12791;50.992;13.788;2022-10-26T04:54:57;9.00;99.90
24664;DHT22;12791;50.992;13.788;2022-10-26T04:57:23;8.70;99.90
24664;DHT22;12791;50.992;13.788;2022-10-26T04:59:50;8.70;99.90
24664;DHT22;12791;50.992;13.788;2022-10-26T05:02:18;8.70;99.90
24664;DHT22;12791;50.992;13.788;2022-10-26T05:04:46;8.70;99.90
24664;DHT22;12791;50.992;13.788;2022-10-26T05:07:12;8.70;99.90
24664;DHT22;12791;50.992;13.788;2022-10-26T05:09:39;8.70;99.90
24664;DHT22;12791;50.992;13.788;2022-10-26T05:12:06;8.70;99.90
24664;DHT22;12791;50.992;13.788;2022-10-26T05:14:33;8.70;99.90
24664;DHT22;12791;50.992;13.788;2022-10-26T05:16:59;8.70;99.90
24664;DHT22;12791;50.992;13.788;2022-10-26T05:19:27;8.80;99.90
24664;DHT22;12791;50.992;13.788;2022-10-26T05:21:54;8.70;99.90
24664;DHT22;12791;50.992;13.788;2022-10-26T05:24:21;8.80;99.90
24664;DHT22;12791;50.992;13.788;2022-10-26T05:26:47;8.70;99.90
24664;DHT22;12791;50.992;13.788;2022-10-26T05:29:14;8.70;99.90
24664;DHT22;12791;50.992;13.788;2022-10-26T05:31:41;8.80;99.90
24664;DHT22;12791;50.992;13.788;2022-10-26T05:34:08;8.80;99.90
24664;DHT22;12791;50.992;13.788;2022-10-26T05:36:36;8.80;99.90
24664;DHT22;12791;50.992;13.788;2022-10-26T05:39:03;9.00;99.90
24664;DHT22;12791;50.992;13.788;2022-10-26T05:41:29;8.80;99.90
24664;DHT22;12791;50.992;13.788;2022-10-26T05:43:56;9.00;99.90
24664;DHT22;12791;50.992;13.788;2022-10-26T05:46:23;9.10;99.90
24664;DHT22;12791;50.992;13.788;2022-10-26T05:48:49;8.90;99.90
24664;DHT22;12791;50.992;13.788;2022-10-26T05:51:16;9.10;99.90
24664;DHT22;12791;50.992;13.788;2022-10-26T05:53:44;9.00;99.90
24664;DHT22;12791;50.992;13.788;2022-10-26T05:56:16;9.00;99.90
24664;DHT22;12791;50.992;13.788;2022-10-26T05:58:44;9.10;99.90
24664;DHT22;12791;50.992;13.788;2022-10-26T06:01:17;9.30;99.90
24664;DHT22;12791;50.992;13.788;2022-10-26T06:03:58;9.00;99.90
24664;DHT22;12791;50.992;13.788;2022-10-26T06:06:29;9.00;99.90
24664;DHT22;12791;50.992;13.788;2022-10-26T06:09:01;9.00;99.90
24664;DHT22;12791;50.992;13.788;2022-10-26T06:11:28;9.10;99.90
24664;DHT22;12791;50.992;13.788;2022-10-26T06:13:55;9.00;99.90
24664;DHT22;12791;50.992;13.788;2022-10-26T06:16:32;9.00;99.90
24664;DHT22;12791;50.992;13.788;2022-10-26T06:19:11;8.90;99.90
24664;DHT22;12791;50.992;13.788;2022-10-26T06:21:49;9.10;99.90
24664;DHT22;12791;50.992;13.788;2022-10-26T06:24:23;9.20;99.90
24664;DHT22;12791;50.992;13.788;2022-10-26T06:26:58;9.00;99.90
24664;DHT22;12791;50.992;13.788;2022-10-26T06:29:35;8.80;99.90
24664;DHT22;12791;50.992;13.788;2022-10-26T06:32:05;9.20;99.90
24664;DHT22;12791;50.992;13.788;2022-10-26T06:34:34;9.20;99.90
24664;DHT22;12791;50.992;13.788;2022-10-26T06:37:02;9.00;99.90
24664;DHT22;12791;50.992;13.788;2022-10-26T06:39:35;9.00;99.90
24664;DHT22;12791;50.992;13.788;2022-10-26T06:42:03;9.00;99.90
24664;DHT22;12791;50.992;13.788;2022-10-26T06:44:31;9.00;99.90
24664;DHT22;12791;50.992;13.788;2022-10-26T06:47:02;9.10;99.90
24664;DHT22;12791;50.992;13.788;2022-10-26T06:49:31;9.20;99.90
24664;DHT22;12791;50.992;13.788;2022-10-26T06:52:02;9.00;99.90
24664;DHT22;12791;50.992;13.788;2022-10-26T06:54:44;9.30;99.90
24664;DHT22;12791;50.992;13.788;2022-10-26T06:57:14;9.10;99.90
24664;DHT22;12791;50.992;13.788;2022-10-26T06:59:43;9.20;99.90
24664;DHT22;12791;50.992;13.788;2022-10-26T07:02:11;9.30;99.90
24664;DHT22;12791;50.992;13.788;2022-10-26T07:04:39;9.20;99.90
24664;DHT22;12791;50.992;13.788;2022-10-26T07:07:06;9.40;99.90
24664;DHT22;12791;50.992;13.788;2022-10-26T07:09:35;9.20;99.90
24664;DHT22;12791;50.992;13.788;2022-10-26T07:12:02;9.70;99.90
24664;DHT22;12791;50.992;13.788;2022-10-26T07:14:28;9.50;99.90
24664;DHT22;12791;50.992;13.788;2022-10-26T07:16:55;9.60;99.90
24664;DHT22;12791;50.992;13.788;2022-10-26T07:19:22;9.70;99.90
24664;DHT22;12791;50.992;13.788;2022-10-26T07:21:49;9.70;99.90
24664;DHT22;12791;50.992;13.788;2022-10-26T07:24:15;10.20;99.90
24664;DHT22;12791;50.992;13.788;2022-10-26T07:26:43;9.90;99.90
24664;DHT22;12791;50.992;13.788;2022-10-26T07:29:10;10.00;99.90
24664;DHT22;12791;50.992;13.788;2022-10-26T07:31:38;10.00;99.90
24664;DHT22;12791;50.992;13.788;2022-10-26T07:34:05;10.10;99.90
24664;DHT22;12791;50.992;13.788;2022-10-26T07:36:32;10.10;99.90
24664;DHT22;12791;50.992;13.788;2022-10-26T07:39:01;10.20;99.90
24664;DHT22;12791;50.992;13.788;2022-10-26T07:41:28;10.20;99.90
24664;DHT22;12791;50.992;13.788;2022-10-26T07:43:56;10.20;99.90
24664;DHT22;12791;50.992;13.788;2022-10-26T07:46:23;10.10;99.90
24664;DHT22;12791;50.992;13.788;2022-10-26T07:48:50;10.20;99.90
24664;DHT22;12791;50.992;13.788;2022-10-26T07:51:17;9.80;99.90
24664;DHT22;12791;50.992;13.788;2022-10-26T07:53:44;10.40;99.90
24664;DHT22;12791;50.992;13.788;2022-10-26T07:56:11;10.30;99.90
24664;DHT22;12791;50.992;13.788;2022-10-26T07:58:38;10.50;99.90
24664;DHT22;12791;50.992;13.788;2022-10-26T08:01:07;10.50;99.90
24664;DHT22;12791;50.992;13.788;2022-10-26T08:03:35;10.60;99.90
24664;DHT22;12791;50.992;13.788;2022-10-26T08:06:02;10.60;99.90
24664;DHT22;12791;50.992;13.788;2022-10-26T08:08:29;10.60;99.90
24664;DHT22;12791;50.992;13.788;2022-10-26T08:10:56;10.60;99.90
24664;DHT22;12791;50.992;13.788;2022-10-26T08:13:23;10.60;99.90
24664;DHT22;12791;50.992;13.788;2022-10-26T08:15:55;10.60;99.90
24664;DHT22;12791;50.992;13.788;2022-10-26T08:18:23;10.60;99.90
24664;DHT22;12791;50.992;13.788;2022-10-26T08:20:50;10.70;99.90
24664;DHT22;12791;50.992;13.788;2022-10-26T08:23:17;10.80;99.90
24664;DHT22;12791;50.992;13.788;2022-10-26T08:25:44;10.80;99.90
24664;DHT22;12791;50.992;13.788;2022-10-26T08:28:10;10.90;99.90
24664;DHT22;12791;50.992;13.788;2022-10-26T08:30:37;11.00;99.90
24664;DHT22;12791;50.992;13.788;2022-10-26T08:33:05;11.00;99.90
24664;DHT22;12791;50.992;13.788;2022-10-26T08:35:34;11.10;99.90
24664;DHT22;12791;50.992;13.788;2022-10-26T08:38:00;11.20;99.90
24664;DHT22;12791;50.992;13.788;2022-10-26T08:40:29;11.30;99.90
24664;DHT22;12791;50.992;13.788;2022-10-26T08:43:00;11.30;99.90
24664;DHT22;12791;50.992;13.788;2022-10-26T08:45:30;11.50;99.90
24664;DHT22;12791;50.992;13.788;2022-10-26T08:48:01;11.40;99.90
24664;DHT22;12791;50.992;13.788;2022-10-26T08:50:32;11.40;99.90
24664;DHT22;12791;50.992;13.788;2022-10-26T08:53:07;11.40;99.90
24664;DHT22;12791;50.992;13.788;2022-10-26T08:55:41;11.50;99.90
24664;DHT22;12791;50.992;13.788;2022-10-26T08:58:12;11.60;99.90
24664;DHT22;12791;50.992;13.788;2022-10-26T09:00:40;11.70;99.90
24664;DHT22;12791;50.992;13.788;2022-10-26T09:03:12;11.70;99.90
24664;DHT22;12791;50.992;13.788;2022-10-26T09:05:48;11.80;99.90
24664;DHT22;12791;50.992;13.788;2022-10-26T09:08:28;11.90;99.90
24664;DHT22;12791;50.992;13.788;2022-10-26T09:11:01;12.00;99.90
24664;DHT22;12791;50.992;13.788;2022-10-26T09:13:36;12.10;99.90
24664;DHT22;12791;50.992;13.788;2022-10-26T09:16:13;12.10;99.90
24664;DHT22;12791;50.992;13.788;2022-10-26T09:18:55;12.20;99.90
24664;DHT22;12791;50.992;13.788;2022-10-26T09:21:33;12.30;99.90
24664;DHT22;12791;50.992;13.788;2022-10-26T09:24:10;12.40;99.90
24664;DHT22;12791;50.992;13.788;2022-10-26T09:26:50;12.40;99.90
24664;DHT22;12791;50.992;13.788;2022-10-26T09:29:21;12.50;99.90
24664;DHT22;12791;50.992;13.788;2022-10-26T09:31:49;12.40;99.90
24664;DHT22;12791;50.992;13.788;2022-10-26T09:34:24;12.50;99.90
24664;DHT22;12791;50.992;13.788;2022-10-26T09:36:54;12.70;99.90
24664;DHT22;12791;50.992;13.788;2022-10-26T09:39:28;12.60;99.90
24664;DHT22;12791;50.992;13.788;2022-10-26T09:41:59;12.60;99.90
24664;DHT22;12791;50.992;13.788;2022-10-26T09:44:32;12.70;99.90
24664;DHT22;12791;50.992;13.788;2022-10-26T09:47:03;13.00;99.90
24664;DHT22;12791;50.992;13.788;2022-10-26T09:49:36;12.80;99.90
24664;DHT22;12791;50.992;13.788;2022-10-26T09:52:05;12.90;99.90
24664;DHT22;12791;50.992;13.788;2022-10-26T09:54:34;13.00;99.90
24664;DHT22;12791;50.992;13.788;2022-10-26T09:57:01;13.10;99.90
24664;DHT22;12791;50.992;13.788;2022-10-26T09:59:34;13.10;99.90
24664;DHT22;12791;50.992;13.788;2022-10-26T10:05:07;13.30;99.90
24664;DHT22;12791;50.992;13.788;2022-10-26T10:07:45;13.30;99.90
24664;DHT22;12791;50.992;13.788;2022-10-26T10:10:16;13.40;99.90
24664;DHT22;12791;50.992;13.788;2022-10-26T10:12:45;13.50;99.90
24664;DHT22;12791;50.992;13.788;2022-10-26T10:15:18;13.60;99.90
24664;DHT22;12791;50.992;13.788;2022-10-26T10:17:49;14.00;99.90
24664;DHT22;12791;50.992;13.788;2022-10-26T10:20:18;13.80;99.90
24664;DHT22;12791;50.992;13.788;2022-10-26T10:22:56;13.90;99.90
24664;DHT22;12791;50.992;13.788;2022-10-26T10:25:32;14.00;99.90
24664;DHT22;12791;50.992;13.788;2022-10-26T10:28:00;14.00;99.90
24664;DHT22;12791;50.992;13.788;2022-10-26T10:30:29;14.20;99.90
24664;DHT22;12791;50.992;13.788;2022-10-26T10:33:04;14.20;99.90
24664;DHT22;12791;50.992;13.788;2022-10-26T10:35:31;14.30;99.90
24664;DHT22;12791;50.992;13.788;2022-10-26T10:37:58;14.30;99.90
24664;DHT22;12791;50.992;13.788;2022-10-26T10:40:27;14.40;99.90
24664;DHT22;12791;50.992;13.788;2022-10-26T10:43:03;14.50;99.90
24664;DHT22;12791;50.992;13.788;2022-10-26T10:45:31;14.60;99.90
24664;DHT22;12791;50.992;13.788;2022-10-26T10:48:00;14.60;99.90
24664;DHT22;12791;50.992;13.788;2022-10-26T10:50:28;14.70;99.90
24664;DHT22;12791;50.992;13.788;2022-10-26T10:53:13;14.70;99.90
24664;DHT22;12791;50.992;13.788;2022-10-26T10:55:51;14.70;99.90
24664;DHT22;12791;50.992;13.788;2022-10-26T10:58:25;14.70;99.90
24664;DHT22;12791;50.992;13.788;2022-10-26T11:00:53;14.80;99.90
24664;DHT22;12791;50.992;13.788;2022-10-26T11:03:36;14.90;99.90
24664;DHT22;12791;50.992;13.788;2022-10-26T11:06:10;15.00;99.90
24664;DHT22;12791;50.992;13.788;2022-10-26T11:08:42;15.10;99.90
24664;DHT22;12791;50.992;13.788;2022-10-26T11:11:14;15.20;99.90
24664;DHT22;12791;50.992;13.788;2022-10-26T11:13:48;15.30;99.90
24664;DHT22;12791;50.992;13.788;2022-10-26T11:16:15;15.40;99.90
24664;DHT22;12791;50.992;13.788;2022-10-26T11:18:47;15.40;99.90
24664;DHT22;12791;50.992;13.788;2022-10-26T11:21:22;15.50;99.90
24664;DHT22;12791;50.992;13.788;2022-10-26T11:23:56;15.60;99.90
24664;DHT22;12791;50.992;13.788;2022-10-26T11:26:31;15.70;99.90
24664;DHT22;12791;50.992;13.788;2022-10-26T11:29:02;15.80;99.90
24664;DHT22;12791;50.992;13.788;2022-10-26T11:31:32;15.80;99.90
24664;DHT22;12791;50.992;13.788;2022-10-26T11:34:14;15.90;99.90
24664;DHT22;12791;50.992;13.788;2022-10-26T11:36:44;15.90;99.90
24664;DHT22;12791;50.992;13.788;2022-10-26T11:39:18;15.90;99.90
24664;DHT22;12791;50.992;13.788;2022-10-26T11:41:51;15.90;99.90
24664;DHT22;12791;50.992;13.788;2022-10-26T11:44:25;16.00;99.90
24664;DHT22;12791;50.992;13.788;2022-10-26T11:46:55;16.00;99.90
24664;DHT22;12791;50.992;13.788;2022-10-26T11:49:27;16.10;99.90
24664;DHT22;12791;50.992;13.788;2022-10-26T11:51:58;16.10;99.90
24664;DHT22;12791;50.992;13.788;2022-10-26T11:54:29;16.10;99.90
24664;DHT22;12791;50.992;13.788;2022-10-26T11:57:00;16.10;99.90
24664;DHT22;12791;50.992;13.788;2022-10-26T11:59:31;16.20;99.90
24664;DHT22;12791;50.992;13.788;2022-10-26T12:02:03;16.30;99.90
24664;DHT22;12791;50.992;13.788;2022-10-26T12:04:33;16.30;99.90
24664;DHT22;12791;50.992;13.788;2022-10-26T12:07:06;16.30;99.90
24664;DHT22;12791;50.992;13.788;2022-10-26T12:09:37;16.30;99.90
24664;DHT22;12791;50.992;13.788;2022-10-26T12:12:10;16.30;99.90
24664;DHT22;12791;50.992;13.788;2022-10-26T12:14:42;16.40;99.90
24664;DHT22;12791;50.992;13.788;2022-10-26T12:17:17;16.40;99.90
24664;DHT22;12791;50.992;13.788;2022-10-26T12:19:50;16.50;99.90
24664;DHT22;12791;50.992;13.788;2022-10-26T12:22:20;16.50;99.90
24664;DHT22;12791;50.992;13.788;2022-10-26T12:25:05;16.50;99.90
24664;DHT22;12791;50.992;13.788;2022-10-26T12:27:49;16.60;99.90
24664;DHT22;12791;50.992;13.788;2022-10-26T12:30:30;16.60;99.90
24664;DHT22;12791;50.992;13.788;2022-10-26T12:32:59;16.60;99.90
24664;DHT22;12791;50.992;13.788;2022-10-26T12:35:34;16.60;99.90
24664;DHT22;12791;50.992;13.788;2022-10-26T12:41:25;16.50;99.90
24664;DHT22;12791;50.992;13.788;2022-10-26T12:43:57;16.50;99.90
24664;DHT22;12791;50.992;13.788;2022-10-26T12:46:40;16.50;99.90
24664;DHT22;12791;50.992;13.788;2022-10-26T12:55:27;16.40;99.90
24664;DHT22;12791;50.992;13.788;2022-10-26T12:58:08;16.40;99.90
24664;DHT22;12791;50.992;13.788;2022-10-26T13:00:43;16.50;99.90
24664;DHT22;12791;50.992;13.788;2022-10-26T13:03:23;16.50;99.90
24664;DHT22;12791;50.992;13.788;2022-10-26T13:06:14;16.50;99.90
24664;DHT22;12791;50.992;13.788;2022-10-26T13:08:44;16.50;99.90
24664;DHT22;12791;50.992;13.788;2022-10-26T13:11:16;16.50;99.90
24664;DHT22;12791;50.992;13.788;2022-10-26T13:13:51;16.50;99.90
24664;DHT22;12791;50.992;13.788;2022-10-26T13:16:19;16.50;99.90
24664;DHT22;12791;50.992;13.788;2022-10-26T13:18:47;16.50;99.90
24664;DHT22;12791;50.992;13.788;2022-10-26T13:21:15;16.40;99.90
24664;DHT22;12791;50.992;13.788;2022-10-26T13:23:45;16.40;99.90
24664;DHT22;12791;50.992;13.788;2022-10-26T13:26:14;16.40;99.90
24664;DHT22;12791;50.992;13.788;2022-10-26T13:28:46;16.40;99.90
24664;DHT22;12791;50.992;13.788;2022-10-26T13:34:09;16.40;99.90
24664;DHT22;12791;50.992;13.788;2022-10-26T13:36:43;16.30;99.90
24664;DHT22;12791;50.992;13.788;2022-10-26T13:39:14;16.30;99.90
24664;DHT22;12791;50.992;13.788;2022-10-26T13:41:45;16.40;99.90
24664;DHT22;12791;50.992;13.788;2022-10-26T13:44:18;16.40;99.90
24664;DHT22;12791;50.992;13.788;2022-10-26T13:46:50;16.30;99.90
24664;DHT22;12791;50.992;13.788;2022-10-26T13:49:20;16.30;99.90
24664;DHT22;12791;50.992;13.788;2022-10-26T13:51:51;16.30;99.90
24664;DHT22;12791;50.992;13.788;2022-10-26T13:54:22;16.30;99.90
24664;DHT22;12791;50.992;13.788;2022-10-26T13:57:01;16.20;99.90
24664;DHT22;12791;50.992;13.788;2022-10-26T13:59:32;16.10;99.90
24664;DHT22;12791;50.992;13.788;2022-10-26T14:02:07;16.10;99.90
24664;DHT22;12791;50.992;13.788;2022-10-26T14:04:40;16.00;99.90
24664;DHT22;12791;50.992;13.788;2022-10-26T14:07:15;16.00;99.90
24664;DHT22;12791;50.992;13.788;2022-10-26T14:09:49;15.90;99.90
24664;DHT22;12791;50.992;13.788;2022-10-26T14:12:16;15.90;99.90
24664;DHT22;12791;50.992;13.788;2022-10-26T14:14:44;15.80;99.90
24664;DHT22;12791;50.992;13.788;2022-10-26T14:17:17;15.90;99.90
24664;DHT22;12791;50.992;13.788;2022-10-26T14:19:44;15.90;99.90
24664;DHT22;12791;50.992;13.788;2022-10-26T14:22:18;15.90;99.90
24664;DHT22;12791;50.992;13.788;2022-10-26T14:24:51;15.90;99.90
24664;DHT22;12791;50.992;13.788;2022-10-26T14:27:19;15.90;99.90
24664;DHT22;12791;50.992;13.788;2022-10-26T14:29:49;15.90;99.90
24664;DHT22;12791;50.992;13.788;2022-10-26T14:32:25;15.80;99.90
24664;DHT22;12791;50.992;13.788;2022-10-26T14:34:52;15.80;99.90
24664;DHT22;12791;50.992;13.788;2022-10-26T14:37:29;15.80;99.90
24664;DHT22;12791;50.992;13.788;2022-10-26T14:40:00;15.80;99.90
24664;DHT22;12791;50.992;13.788;2022-10-26T14:42:28;15.80;99.90
24664;DHT22;12791;50.992;13.788;2022-10-26T14:44:58;15.70;99.90
24664;DHT22;12791;50.992;13.788;2022-10-26T14:47:27;15.70;99.90
24664;DHT22;12791;50.992;13.788;2022-10-26T14:49:55;15.70;99.90
24664;DHT22;12791;50.992;13.788;2022-10-26T14:52:24;15.70;99.90
24664;DHT22;12791;50.992;13.788;2022-10-26T14:54:59;15.60;99.90
24664;DHT22;12791;50.992;13.788;2022-10-26T14:57:34;15.60;99.90
24664;DHT22;12791;50.992;13.788;2022-10-26T15:00:10;15.60;99.90
24664;DHT22;12791;50.992;13.788;2022-10-26T15:02:38;15.60;99.90
24664;DHT22;12791;50.992;13.788;2022-10-26T15:05:17;15.60;99.90
24664;DHT22;12791;50.992;13.788;2022-10-26T15:07:44;15.60;99.90
24664;DHT22;12791;50.992;13.788;2022-10-26T15:10:45;15.50;99.90
24664;DHT22;12791;50.992;13.788;2022-10-26T15:13:20;15.50;99.90
24664;DHT22;12791;50.992;13.788;2022-10-26T15:18:22;15.40;99.90
24664;DHT22;12791;50.992;13.788;2022-10-26T15:20:51;15.30;99.90
24664;DHT22;12791;50.992;13.788;2022-10-26T15:23:18;15.30;99.90
24664;DHT22;12791;50.992;13.788;2022-10-26T15:25:51;15.30;99.90
24664;DHT22;12791;50.992;13.788;2022-10-26T15:28:24;15.20;99.90
24664;DHT22;12791;50.992;13.788;2022-10-26T15:30:58;15.20;99.90
24664;DHT22;12791;50.992;13.788;2022-10-26T15:33:27;15.10;99.90
24664;DHT22;12791;50.992;13.788;2022-10-26T15:36:11;15.10;99.90
24664;DHT22;12791;50.992;13.788;2022-10-26T15:38:38;15.00;99.90
24664;DHT22;12791;50.992;13.788;2022-10-26T15:41:08;15.00;99.90
24664;DHT22;12791;50.992;13.788;2022-10-26T15:43:38;15.00;99.90
24664;DHT22;12791;50.992;13.788;2022-10-26T15:46:05;15.00;99.90
24664;DHT22;12791;50.992;13.788;2022-10-26T15:48:33;14.90;99.90
24664;DHT22;12791;50.992;13.788;2022-10-26T15:51:00;14.90;99.90
24664;DHT22;12791;50.992;13.788;2022-10-26T15:53:27;14.90;99.90
24664;DHT22;12791;50.992;13.788;2022-10-26T15:55:56;14.90;99.90
24664;DHT22;12791;50.992;13.788;2022-10-26T15:58:23;14.80;99.90
24664;DHT22;12791;50.992;13.788;2022-10-26T16:00:50;14.80;99.90
24664;DHT22;12791;50.992;13.788;2022-10-26T16:03:19;14.80;99.90
24664;DHT22;12791;50.992;13.788;2022-10-26T16:05:48;14.70;99.90
24664;DHT22;12791;50.992;13.788;2022-10-26T16:08:17;14.70;99.90
24664;DHT22;12791;50.992;13.788;2022-10-26T16:10:44;14.60;99.90
24664;DHT22;12791;50.992;13.788;2022-10-26T16:13:12;14.70;99.90
24664;DHT22;12791;50.992;13.788;2022-10-26T16:15:39;14.60;99.90
24664;DHT22;12791;50.992;13.788;2022-10-26T16:18:05;14.60;99.90
24664;DHT22;12791;50.992;13.788;2022-10-26T16:20:32;14.60;99.90
24664;DHT22;12791;50.992;13.788;2022-10-26T16:23:01;14.60;99.90
24664;DHT22;12791;50.992;13.788;2022-10-26T16:25:32;14.60;99.90
24664;DHT22;12791;50.992;13.788;2022-10-26T16:28:00;14.60;99.90
24664;DHT22;12791;50.992;13.788;2022-10-26T16:30:28;14.50;99.90
24664;DHT22;12791;50.992;13.788;2022-10-26T16:32:55;14.50;99.90
24664;DHT22;12791;50.992;13.788;2022-10-26T16:35:22;14.50;99.90
24664;DHT22;12791;50.992;13.788;2022-10-26T16:37:48;14.40;99.90
24664;DHT22;12791;50.992;13.788;2022-10-26T16:40:17;14.40;99.90
24664;DHT22;12791;50.992;13.788;2022-10-26T16:42:43;14.40;99.90
24664;DHT22;12791;50.992;13.788;2022-10-26T16:45:11;14.40;99.90
24664;DHT22;12791;50.992;13.788;2022-10-26T16:47:38;14.40;99.90
24664;DHT22;12791;50.992;13.788;2022-10-26T16:50:06;14.30;99.90
24664;DHT22;12791;50.992;13.788;2022-10-26T16:52:34;14.40;99.90
24664;DHT22;12791;50.992;13.788;2022-10-26T16:55:01;14.30;99.90
24664;DHT22;12791;50.992;13.788;2022-10-26T16:57:30;14.30;99.90
24664;DHT22;12791;50.992;13.788;2022-10-26T16:59:57;14.30;99.90
24664;DHT22;12791;50.992;13.788;2022-10-26T17:02:24;14.30;99.90
24664;DHT22;12791;50.992;13.788;2022-10-26T17:04:50;14.30;99.90
24664;DHT22;12791;50.992;13.788;2022-10-26T17:07:17;14.20;99.90
24664;DHT22;12791;50.992;13.788;2022-10-26T17:09:43;14.20;99.90
24664;DHT22;12791;50.992;13.788;2022-10-26T17:12:10;14.20;99.90
24664;DHT22;12791;50.992;13.788;2022-10-26T17:14:38;14.20;99.90
24664;DHT22;12791;50.992;13.788;2022-10-26T17:17:05;14.20;99.90
24664;DHT22;12791;50.992;13.788;2022-10-26T17:19:32;14.20;99.90
24664;DHT22;12791;50.992;13.788;2022-10-26T17:21:58;14.20;99.90
24664;DHT22;12791;50.992;13.788;2022-10-26T17:24:25;14.20;99.90
24664;DHT22;12791;50.992;13.788;2022-10-26T17:26:52;14.10;99.90
24664;DHT22;12791;50.992;13.788;2022-10-26T17:29:18;14.10;99.90
24664;DHT22;12791;50.992;13.788;2022-10-26T17:31:46;14.10;99.90
24664;DHT22;12791;50.992;13.788;2022-10-26T17:34:13;13.90;99.90
24664;DHT22;12791;50.992;13.788;2022-10-26T17:36:40;14.10;99.90
24664;DHT22;12791;50.992;13.788;2022-10-26T17:39:08;14.10;99.90
24664;DHT22;12791;50.992;13.788;2022-10-26T17:41:34;14.10;99.90
24664;DHT22;12791;50.992;13.788;2022-10-26T17:44:01;14.10;99.90
24664;DHT22;12791;50.992;13.788;2022-10-26T17:46:28;14.00;99.90
24664;DHT22;12791;50.992;13.788;2022-10-26T17:48:57;14.10;99.90
24664;DHT22;12791;50.992;13.788;2022-10-26T17:51:25;14.10;99.90
24664;DHT22;12791;50.992;13.788;2022-10-26T17:53:53;14.10;99.90
24664;DHT22;12791;50.992;13.788;2022-10-26T17:56:21;14.10;99.90
24664;DHT22;12791;50.992;13.788;2022-10-26T17:58:51;14.10;99.90
24664;DHT22;12791;50.992;13.788;2022-10-26T18:01:18;14.00;99.90
24664;DHT22;12791;50.992;13.788;2022-10-26T18:03:45;14.00;99.90
24664;DHT22;12791;50.992;13.788;2022-10-26T18:06:13;14.00;99.90
24664;DHT22;12791;50.992;13.788;2022-10-26T18:08:42;14.00;99.90
24664;DHT22;12791;50.992;13.788;2022-10-26T18:11:11;14.00;99.90
24664;DHT22;12791;50.992;13.788;2022-10-26T18:13:39;14.00;99.90
24664;DHT22;12791;50.992;13.788;2022-10-26T18:16:08;14.00;99.90
24664;DHT22;12791;50.992;13.788;2022-10-26T18:18:35;14.00;99.90
24664;DHT22;12791;50.992;13.788;2022-10-26T18:21:04;14.00;99.90
24664;DHT22;12791;50.992;13.788;2022-10-26T18:23:32;13.90;99.90
24664;DHT22;12791;50.992;13.788;2022-10-26T18:26:00;13.90;99.90
24664;DHT22;12791;50.992;13.788;2022-10-26T18:28:27;13.90;99.90
24664;DHT22;12791;50.992;13.788;2022-10-26T18:30:59;13.90;99.90
24664;DHT22;12791;50.992;13.788;2022-10-26T18:33:25;13.90;99.90
24664;DHT22;12791;50.992;13.788;2022-10-26T18:35:52;13.90;99.90
24664;DHT22;12791;50.992;13.788;2022-10-26T18:38:19;13.90;99.90
24664;DHT22;12791;50.992;13.788;2022-10-26T18:40:52;13.90;99.90
24664;DHT22;12791;50.992;13.788;2022-10-26T18:43:18;13.90;99.90
24664;DHT22;12791;50.992;13.788;2022-10-26T18:45:45;13.90;99.90
24664;DHT22;12791;50.992;13.788;2022-10-26T18:48:12;13.90;99.90
24664;DHT22;12791;50.992;13.788;2022-10-26T18:50:39;13.90;99.90
24664;DHT22;12791;50.992;13.788;2022-10-26T18:53:06;13.90;99.90
24664;DHT22;12791;50.992;13.788;2022-10-26T18:55:37;13.90;99.90